Flight Track Log - Related Links

Times and Time Zones

All times are in EDT time to prevent confusion due to time zone crossing. See the DAL2286 flight status page for this flight to view local times or setup timezone preferences in your user account.

Time Position Orientation Groundspeed Altitude Reporting Facility
EDT Latitude Longitude Course Direction KTS MPH feet Rate Location/Type
Mon 07:41:34 PM 33.6333 -84.4500 53° Northeast 165 190 2,100  Level Atlanta TRACON
Mon 07:42:34 PM 33.6167 -84.5167 253° West 229 264 3,700 2,450 Climbing Atlanta TRACON
Mon 07:43:34 PM 33.5667 -84.5833 228° Southwest 289 333 7,000 3,200 Climbing Atlanta TRACON
Mon 07:44:00 PM 33.9357 -84.1706 54° Northeast  Level Estimated
Mon 07:44:34 PM 33.4833 -84.5833 180° South 301 346 10,100  Level Atlanta TRACON
Mon 07:45:00 PM 34.0352 -84.0845 48° Northeast  Level Estimated
Mon 07:45:45 PM 33.4575 -84.4694 105° East 319 367 12,300  Level Atlanta Center
Mon 07:46:00 PM 34.1347 -83.9981 53° Northeast  Level Estimated
Mon 07:46:45 PM 33.5142 -84.3703 56° Northeast 318 366 14,900  Level Atlanta Center
Mon 07:47:45 PM 33.5811 -84.2683 52° Northeast 363 418 17,200 2,100 Climbing Atlanta Center
Mon 07:48:45 PM 33.6481 -84.1611 53° Northeast 394 453 19,100 1,750 Climbing Atlanta Center
Mon 07:49:45 PM 33.7211 -84.0464 53° Northeast 423 487 20,700 1,650 Climbing Atlanta Center
Mon 07:50:45 PM 33.7964 -83.9264 53° Northeast 440 506 22,400 1,600 Climbing Atlanta Center
Mon 07:51:45 PM 33.8669 -83.8111 54° Northeast 452 520 23,900 1,650 Climbing Atlanta Center
Mon 07:52:45 PM 33.9461 -83.6883 52° Northeast 465 535 25,700 1,550 Climbing Atlanta Center
Mon 07:53:45 PM 34.0269 -83.5575 53° Northeast 472 543 27,000 1,200 Climbing Atlanta Center
Mon 07:54:45 PM 34.1078 -83.4292 53° Northeast 478 550 28,100 1,200 Climbing Atlanta Center
Mon 07:55:45 PM 34.1928 -83.2981 52° Northeast 491 565 29,400 1,450 Climbing Atlanta Center
Mon 07:56:45 PM 34.2628 -83.1567 59° Northeast 491 565 31,000 1,450 Climbing Atlanta Center
Mon 07:57:45 PM 34.3053 -82.9953 72° East 485 558 32,300 1,400 Climbing Atlanta Center
Mon 07:58:45 PM 34.3497 -82.8361 71° East 493 567 33,800 1,300 Climbing Atlanta Center
Mon 07:59:45 PM 34.3981 -82.6667 71° East 488 562 34,900 1,050 Climbing Atlanta Center
Mon 08:00:45 PM 34.4678 -82.5497 54° Northeast 469 540 35,900 600 Climbing Atlanta Center
Mon 08:01:45 PM 34.5644 -82.4447 42° Northeast 462 532 36,100 550 Climbing Atlanta Center
Mon 08:02:45 PM 34.6611 -82.3367 43° Northeast 456 525 37,000 900 Climbing Atlanta Center
Mon 08:03:45 PM 34.7578 -82.2336 41° Northeast 462 532 37,900 300 Climbing Atlanta Center
Mon 08:04:45 PM 34.8522 -82.1278 43° Northeast 462 532 37,600 -450 Descending Atlanta Center
Mon 08:05:45 PM 34.9528 -82.0217 41° Northeast 449 517 37,000 -250 Descending Atlanta Center
Mon 08:06:45 PM 35.0553 -81.9253 38° Northeast 456 525 37,100 50 Climbing Atlanta Center
Mon 08:07:45 PM 35.1689 -81.8536 27° Northeast 456 525 37,100  Level Atlanta Center
Mon 08:08:45 PM 35.2867 -81.7869 25° Northeast 456 525 37,100 -50 Level Atlanta Center
Mon 08:09:45 PM 35.3897 -81.7281 25° Northeast 456 525 37,000  Descending Atlanta Center
Mon 08:10:45 PM 35.5053 -81.6586 26° Northeast 456 525 37,100 50 Climbing Atlanta Center
Mon 08:11:45 PM 35.6231 -81.5914 25° Northeast 456 525 37,100  Level Atlanta Center
Mon 08:12:45 PM 35.7447 -81.5236 24° Northeast 461 531 37,100  Level Atlanta Center
Mon 08:13:45 PM 35.8703 -81.4456 27° Northeast 461 531 37,100 -50 Level Atlanta Center
Mon 08:14:45 PM 35.9878 -81.3750 26° Northeast 461 531 37,000 -50 Descending Atlanta Center
Mon 08:15:45 PM 36.1008 -81.3069 26° Northeast 454 522 37,000 50 Level Atlanta Center
Mon 08:16:45 PM 36.2142 -81.2414 25° Northeast 449 517 37,100 50 Climbing Atlanta Center
Mon 08:17:45 PM 36.3314 -81.1678 27° Northeast 459 528 37,100  Level Atlanta Center
Mon 08:18:45 PM 36.4375 -81.0761 35° Northeast 465 535 37,100  Level Atlanta Center
Mon 08:20:47 PM 36.6142 -80.8503 46° Northeast 480 552 37,100 33 Level Washington Center
Mon 08:21:47 PM 36.6983 -80.7394 47° Northeast 458 527 37,200 496 Climbing Washington Center
Mon 08:22:48 PM 36.7867 -80.6233 46° Northeast 452 520 38,100 756 Climbing Washington Center
Mon 08:23:46 PM 36.8728 -80.5094 47° Northeast 452 520 38,700 508 Climbing Washington Center
Mon 08:24:46 PM 36.9692 -80.4014 42° Northeast 452 520 39,100 197 Climbing Washington Center
Mon 08:25:48 PM 37.0858 -80.3019 34° Northeast 453 521 39,100  Level Washington Center
Mon 08:26:46 PM 37.1939 -80.2067 35° Northeast 464 534 39,100  Level Washington Center
Mon 08:27:47 PM 37.3017 -80.1114 35° Northeast 470 541 39,100  Level Washington Center
Mon 08:28:48 PM 37.4094 -80.0158 35° Northeast 470 541 39,100 -49 Level Washington Center
Mon 08:29:49 PM 37.5086 -79.9300 34° Northeast 470 541 39,000  Descending Washington Center
Mon 08:30:46 PM 37.6253 -79.8214 36° Northeast 480 552 39,100  Climbing Washington Center
Mon 08:31:47 PM 37.7242 -79.7375 34° Northeast 480 552 39,000  Descending Washington Center
Mon 08:32:47 PM 37.8339 -79.6411 35° Northeast 475 547 39,100 50 Climbing Washington Center
Mon 08:33:48 PM 37.9414 -79.5414 36° Northeast 475 547 39,100  Level Washington Center
Mon 08:34:48 PM 38.0489 -79.4469 35° Northeast 475 547 39,100  Level Washington Center
Mon 08:35:46 PM 38.1669 -79.3394 36° Northeast 470 541 39,100  Level Washington Center
Mon 08:36:49 PM 38.2700 -79.2414 37° Northeast 470 541 39,100  Level Washington Center
Mon 08:37:46 PM 38.3792 -79.1436 35° Northeast 470 541 39,100  Level Washington Center
Mon 08:38:47 PM 38.4864 -79.0453 36° Northeast 470 541 39,100  Level Washington Center
Mon 08:39:48 PM 38.5767 -78.9539 38° Northeast 462 532 39,100  Level Washington Center
Mon 08:40:47 PM 38.6836 -78.8550 36° Northeast 462 532 39,100  Level Washington Center
Mon 08:41:48 PM 38.7906 -78.7558 32° Northeast 468 539 39,100  Level Washington Center
Mon 08:42:00 PM 38.8055 -78.7588 32° Northeast  Level FlightAware Approximate
Mon 08:42:46 PM 38.8972 -78.6564 36° Northeast 468 539 39,100  Level Washington Center
Mon 08:44:48 PM 39.1086 -78.4592 36° Northeast 468 539 39,100  Level Washington Center
Mon 08:45:47 PM 39.2258 -78.3486 36° Northeast 468 539 39,100  Level Washington Center
Mon 08:48:02 PM 39.4517 -78.1361 36° Northeast 454 522 39,100  Level New York Center
Mon 08:49:02 PM 39.5561 -78.0367 36° Northeast 464 534 39,100  Level New York Center
Mon 08:50:02 PM 39.6581 -77.9364 37° Northeast 464 534 39,100  Level New York Center
Mon 08:51:02 PM 39.7622 -77.8364 36° Northeast 464 534 39,100  Level New York Center
Mon 08:52:02 PM 39.8683 -77.7361 36° Northeast 464 534 39,100  Level New York Center
Mon 08:53:02 PM 39.9700 -77.6350 37° Northeast 464 534 39,100 -50 Level New York Center
Mon 08:54:02 PM 40.0739 -77.5342 37° Northeast 464 534 39,000 -50 Descending New York Center
Mon 08:55:02 PM 40.1889 -77.4175 38° Northeast 464 534 39,000  Level New York Center
Mon 08:56:02 PM 40.2942 -77.3242 34° Northeast 459 528 39,000 50 Level New York Center
Mon 08:57:02 PM 40.3867 -77.2347 36° Northeast 454 522 39,100 50 Climbing New York Center
Mon 08:58:02 PM 40.4919 -77.1381 35° Northeast 454 522 39,100  Level New York Center
Mon 08:59:02 PM 40.5994 -77.0386 35° Northeast 459 528 39,100  Level New York Center
Mon 09:00:02 PM 40.7069 -76.9389 35° Northeast 459 528 39,100  Level New York Center
Mon 09:01:02 PM 40.8142 -76.8389 35° Northeast 464 534 39,100  Level New York Center
Mon 09:02:02 PM 40.9214 -76.7386 35° Northeast 470 541 39,100  Level New York Center
Mon 09:03:02 PM 41.0286 -76.6381 35° Northeast 470 541 39,100  Level New York Center
Mon 09:04:02 PM 41.1356 -76.5369 35° Northeast 465 535 39,100  Level New York Center
Mon 09:05:02 PM 41.2403 -76.4383 35° Northeast 465 535 39,100  Level New York Center
Mon 09:06:02 PM 41.3517 -76.3317 36° Northeast 474 545 39,100 -50 Level New York Center
Mon 09:07:01 PM 41.4583 -76.2297 36° Northeast 474 545 39,000 -50 Descending New York Center
Mon 09:08:01 PM 41.5783 -76.1147 36° Northeast 480 552 39,000 31 Level New York Center
Mon 09:10:16 PM 41.8122 -75.8858 36° Northeast 473 544 39,100 31 Climbing Boston Center
Mon 09:11:16 PM 41.9197 -75.7831 35° Northeast 467 537 39,100  Level Boston Center
Mon 09:12:16 PM 42.0247 -75.6794 36° Northeast 467 537 39,100  Level Boston Center
Mon 09:13:17 PM 42.1297 -75.5756 36° Northeast 467 537 39,100  Level Boston Center
Mon 09:14:15 PM 42.2347 -75.4714 36° Northeast 467 537 39,100 -51 Level Boston Center
Mon 09:15:15 PM 42.3289 -75.3806 35° Northeast 460 529 39,000 -49 Descending Boston Center
Mon 09:16:18 PM 42.4317 -75.2728 38° Northeast 460 529 39,000  Level Boston Center
Mon 09:17:17 PM 42.5386 -75.1678 36° Northeast 466 536 39,000  Level Boston Center
Mon 09:18:18 PM 42.6453 -75.0625 36° Northeast 466 536 39,000  Level Boston Center
Mon 09:19:16 PM 42.7497 -74.9567 37° Northeast 466 536 39,000  Level Boston Center
Mon 09:20:17 PM 42.8542 -74.8503 37° Northeast 466 536 39,000 -246 Level Boston Center
Mon 09:21:18 PM 42.9608 -74.7411 37° Northeast 466 536 38,500 -763 Descending Boston Center
Mon 09:22:15 PM 43.0650 -74.6342 37° Northeast 466 536 37,500 -1,119 Descending Boston Center
Mon 09:23:16 PM 43.1819 -74.5158 36° Northeast 466 536 36,300 -1,033 Descending Boston Center
Mon 09:24:17 PM 43.2836 -74.4108 37° Northeast 466 536 35,400 -1,664 Descending Boston Center
Mon 09:25:15 PM 43.3856 -74.3028 38° Northeast 466 536 33,000 -2,847 Descending Boston Center
Mon 09:26:15 PM 43.4872 -74.2000 36° Northeast 461 531 29,800 -3,124 Descending Boston Center
Mon 09:27:16 PM 43.5636 -74.1192 37° Northeast 456 525 26,700 -2,878 Descending Boston Center
Mon 09:28:18 PM 43.6756 -74.0044 37° Northeast 436 502 23,900 -2,824 Descending Boston Center
Mon 09:29:15 PM 43.7581 -73.9147 38° Northeast 400 460 21,100 -3,051 Descending Boston Center
Mon 09:30:16 PM 43.8403 -73.8303 37° Northeast 382 440 17,900 -2,678 Descending Boston Center
Mon 09:31:16 PM 43.9183 -73.7458 38° Northeast 365 420 15,700 -2,218 Descending Boston Center
Mon 09:32:15 PM 43.9900 -73.6722 36° Northeast 359 413 13,500 -2,500 Descending Boston Center
Mon 09:33:16 PM 44.0803 -73.6192 23° Northeast 320 368 10,700 -1,835 Descending Boston Center
Mon 09:34:16 PM 44.1556 -73.5858 18° North 294 338 9,800 -1,289 Descending Boston Center
Mon 09:35:17 PM 44.2269 -73.5497 20° North 272 313 8,100 -1,537 Descending Boston Center
Mon 09:36:17 PM 44.2897 -73.5189 19° North 252 290 6,700 -1,412 Descending Boston Center
Mon 09:37:16 PM 44.3525 -73.4911 18° North 236 272 5,300 -1,600 Descending Boston Center
Mon 09:38:17 PM 44.4069 -73.4600 22° Northeast 221 254 3,500 -958 Descending Boston Center
Mon 09:39:15 PM 44.4492 -73.3939 48° Northeast 215 247 3,400 -454 Descending Boston Center
Mon 09:40:16 PM 44.4869 -73.3333 49° Northeast 215 247 2,600 -590 Descending Boston Center
Mon 09:41:17 PM 44.5144 -73.2786 55° Northeast 193 222 2,200 -639 Descending Boston Center
Mon 09:42:18 PM 44.5128 -73.2289 93° East 140 161 1,300 -712 Descending Boston Center
Mon 09:43:15 PM 44.4922 -73.1881 125° Southeast 129 148 800 -337 Descending Boston Center
Mon 09:45:16 PM 44.4694 -73.1528 132° Southeast 82 94 300 -248 Descending Boston Center

Login

Don't have an account? Register now (free) for customized features, flight alerts, and more!